Haliut, China
Current Conditions -  °F | °C
As of 5:00 PM on Saturday 25 Oct 2014 (Local Time) from ZBHH Reporting Station
Haze Haze  
Wind Chill: 64°   Ceiling: Unl
Heat Index: 64°   Visibility: 2.8mi
Dew Point: 37°   Wind: 4mph
Humidity: 37%   Direction: 240°WSW
Pressure: 29.97"   Gusts: NA
Location:  41.57°N, 108.52°E
Report Text: ZBHH 250900Z 24002MPS 4500 HZ FEW040 18/03 Q1015 NOSIG
Loading
Personal Weather Stations






























Interactive Weather Map
Tropical Storm Tracking
New forecast layout! Learn more

10-Day Weather Forecast

Advertisements
Track Severe Weather on mobile